createdAt,value
2018-12-21T00:01:55.364Z,-1.76
2018-12-21T00:04:24.102Z,-1.78
2018-12-21T00:06:52.873Z,-1.75
2018-12-21T00:09:21.728Z,-1.65
2018-12-21T00:11:50.647Z,-1.57
2018-12-21T00:14:19.374Z,-1.56
2018-12-21T00:16:48.077Z,-1.58
2018-12-21T00:19:16.801Z,-1.63
2018-12-21T00:21:45.542Z,-1.56
2018-12-21T00:24:14.280Z,-1.45
2018-12-21T00:26:42.992Z,-1.40
2018-12-21T00:29:11.721Z,-1.39
2018-12-21T00:31:45.670Z,-1.46
2018-12-21T00:34:19.443Z,-1.48
2018-12-21T00:36:53.251Z,-1.48
2018-12-21T00:39:27.123Z,-1.42
2018-12-21T00:41:55.495Z,-1.40
2018-12-21T00:44:30.622Z,-1.37
2018-12-21T00:47:02.004Z,-1.34
2018-12-21T00:49:30.947Z,-1.35
2018-12-21T00:51:59.740Z,-1.39
2018-12-21T00:54:28.518Z,-1.45
2018-12-21T00:56:57.251Z,-1.48
2018-12-21T00:59:26.512Z,-1.43
2018-12-21T01:01:55.279Z,-1.35
2018-12-21T01:04:24.051Z,-1.36
2018-12-21T01:06:52.842Z,-1.30
2018-12-21T01:09:21.803Z,-1.46
2018-12-21T01:11:52.321Z,-1.60
2018-12-21T01:14:21.018Z,-1.55
2018-12-21T01:16:49.785Z,-1.47
2018-12-21T01:19:19.439Z,-1.38
2018-12-21T01:21:48.204Z,-1.36
2018-12-21T01:24:16.956Z,-1.45
2018-12-21T01:26:45.652Z,-1.57
2018-12-21T01:29:14.450Z,-1.49
2018-12-21T01:31:43.615Z,-1.43
2018-12-21T01:34:12.371Z,-1.38
2018-12-21T01:36:41.937Z,-1.36
2018-12-21T01:39:10.736Z,-1.28
2018-12-21T01:41:39.486Z,-1.32
2018-12-21T01:44:08.246Z,-1.31
2018-12-21T01:46:37.056Z,-1.21
2018-12-21T01:49:05.752Z,-1.25
2018-12-21T01:51:34.483Z,-1.34
2018-12-21T01:54:03.833Z,-1.42
2018-12-21T01:56:32.574Z,-1.61
2018-12-21T01:59:01.318Z,-1.63
2018-12-21T02:01:30.048Z,-1.65
2018-12-21T02:03:58.753Z,-1.68
2018-12-21T02:06:27.555Z,-1.63
2018-12-21T02:08:56.277Z,-1.60
2018-12-21T02:11:25.032Z,-1.59
2018-12-21T02:13:53.835Z,-1.68
2018-12-21T02:16:22.576Z,-1.68
2018-12-21T02:18:51.271Z,-1.73
2018-12-21T02:21:20.007Z,-1.72
2018-12-21T02:23:48.741Z,-1.78
2018-12-21T02:26:17.560Z,-1.77
2018-12-21T02:28:46.384Z,-1.83
2018-12-21T02:31:15.120Z,-1.78
2018-12-21T02:33:43.823Z,-1.79
2018-12-21T02:36:12.533Z,-1.84
2018-12-21T02:38:41.248Z,-1.89
2018-12-21T02:41:10.110Z,-1.95
2018-12-21T02:43:38.836Z,-1.98
2018-12-21T02:46:07.553Z,-1.95
2018-12-21T02:48:36.310Z,-1.96
2018-12-21T02:51:05.452Z,-1.92
2018-12-21T02:53:34.107Z,-1.90
2018-12-21T02:56:02.818Z,-1.85
2018-12-21T02:58:31.523Z,-1.95
2018-12-21T03:01:00.295Z,-1.96
2018-12-21T03:03:28.988Z,-1.99
2018-12-21T03:05:57.675Z,-2.00
2018-12-21T03:08:26.433Z,-2.03
2018-12-21T03:10:55.204Z,-2.08
2018-12-21T03:13:23.937Z,-1.99
2018-12-21T03:15:52.663Z,-1.96
2018-12-21T03:18:21.357Z,-1.99
2018-12-21T03:20:50.158Z,-1.99
2018-12-21T03:23:18.998Z,-1.94
2018-12-21T03:25:47.689Z,-1.96
2018-12-21T03:28:16.423Z,-1.98
2018-12-21T03:30:45.190Z,-1.98
2018-12-21T03:33:14.179Z,-1.97
2018-12-21T03:35:43.019Z,-1.95
2018-12-21T03:38:11.826Z,-1.92
2018-12-21T03:40:40.641Z,-2.01
2018-12-21T03:43:09.392Z,-1.99
2018-12-21T03:45:38.179Z,-1.86
2018-12-21T03:48:06.955Z,-1.96
2018-12-21T03:50:35.711Z,-2.04
2018-12-21T03:53:04.544Z,-2.00
2018-12-21T03:55:33.254Z,-2.06
2018-12-21T03:58:01.984Z,-1.93
2018-12-21T04:00:30.787Z,-2.03
2018-12-21T04:02:59.480Z,-1.93
2018-12-21T04:05:28.250Z,-2.02
2018-12-21T04:07:57.009Z,-1.99
2018-12-21T04:10:25.743Z,-1.99
2018-12-21T04:12:54.462Z,-1.93
2018-12-21T04:15:23.177Z,-2.00
2018-12-21T04:17:51.953Z,-2.06
2018-12-21T04:20:20.839Z,-1.95
2018-12-21T04:22:49.793Z,-1.94
2018-12-21T04:25:18.530Z,-1.86
2018-12-21T04:27:47.246Z,-2.00
2018-12-21T04:30:15.959Z,-2.00
2018-12-21T04:32:44.637Z,-1.86
2018-12-21T04:35:13.700Z,-1.89
2018-12-21T04:37:42.693Z,-1.74
2018-12-21T04:40:11.608Z,-1.73
2018-12-21T04:42:40.391Z,-1.94
2018-12-21T04:45:09.678Z,-1.98
2018-12-21T04:47:38.425Z,-1.97
2018-12-21T04:50:09.196Z,-2.12
2018-12-21T04:52:43.245Z,-2.09
2018-12-21T04:55:08.736Z,-2.08
2018-12-21T04:57:37.490Z,-1.93
2018-12-21T05:00:10.771Z,-1.80
2018-12-21T05:02:39.937Z,-1.77
2018-12-21T05:05:08.659Z,-1.79
2018-12-21T05:07:37.897Z,-1.74
2018-12-21T05:10:07.572Z,-1.66
2018-12-21T05:12:36.309Z,-1.59
2018-12-21T05:15:06.071Z,-1.56
2018-12-21T05:17:34.832Z,-1.57
2018-12-21T05:20:03.629Z,-1.53
2018-12-21T05:22:32.386Z,-1.46
2018-12-21T05:25:01.140Z,-1.53
2018-12-21T05:27:29.842Z,-1.59
2018-12-21T05:29:58.569Z,-1.59
2018-12-21T05:32:27.295Z,-1.60
2018-12-21T05:34:55.987Z,-1.65
2018-12-21T05:37:24.699Z,-1.68
2018-12-21T05:39:53.370Z,-1.78
2018-12-21T05:42:22.127Z,-1.74
2018-12-21T05:44:50.807Z,-1.69
2018-12-21T05:47:19.516Z,-1.70
2018-12-21T05:49:48.262Z,-1.77
2018-12-21T05:52:16.950Z,-1.79
2018-12-21T05:54:45.694Z,-1.77
2018-12-21T05:57:14.499Z,-1.77
2018-12-21T05:59:43.376Z,-1.72
2018-12-21T06:02:12.097Z,-1.79
2018-12-21T06:04:40.885Z,-1.85
2018-12-21T06:07:09.548Z,-1.82
2018-12-21T06:09:38.349Z,-1.77
2018-12-21T06:12:07.094Z,-1.90
2018-12-21T06:14:35.835Z,-1.85
2018-12-21T06:17:04.600Z,-1.81
2018-12-21T06:19:33.347Z,-1.81
2018-12-21T06:22:02.770Z,-1.79
2018-12-21T06:24:32.002Z,-1.74
2018-12-21T06:27:00.731Z,-1.75
2018-12-21T06:29:29.440Z,-1.64
2018-12-21T06:31:58.184Z,-1.57
2018-12-21T06:34:26.959Z,-1.55
2018-12-21T06:36:55.732Z,-1.49
2018-12-21T06:39:24.537Z,-1.30
2018-12-21T06:41:53.255Z,-1.32
2018-12-21T06:44:21.926Z,-1.31
2018-12-21T06:46:50.662Z,-1.24
2018-12-21T06:49:19.839Z,-1.18
2018-12-21T06:51:48.534Z,-1.11
2018-12-21T06:54:17.262Z,-1.25
2018-12-21T06:56:45.968Z,-1.31
2018-12-21T06:59:14.678Z,-1.43
2018-12-21T07:01:43.459Z,-1.33
2018-12-21T07:04:12.162Z,-1.29
2018-12-21T07:06:40.916Z,-1.27
2018-12-21T07:09:09.837Z,-1.26
2018-12-21T07:11:39.636Z,-1.24
2018-12-21T07:14:08.355Z,-1.17
2018-12-21T07:16:37.285Z,-1.21
2018-12-21T07:19:06.091Z,-1.20
2018-12-21T07:21:34.910Z,-1.10
2018-12-21T07:24:03.703Z,-1.11
2018-12-21T07:26:32.484Z,-1.03
2018-12-21T07:29:01.162Z,-0.99
2018-12-21T07:31:29.879Z,-0.94
2018-12-21T07:33:58.594Z,-0.83
2018-12-21T07:36:27.283Z,-0.77
2018-12-21T07:38:56.447Z,-0.74
2018-12-21T07:41:25.228Z,-0.83
2018-12-21T07:43:53.932Z,-0.96
2018-12-21T07:46:22.775Z,-0.92
2018-12-21T07:48:51.594Z,-1.09
2018-12-21T07:51:20.349Z,-1.16
2018-12-21T07:53:49.107Z,-1.06
2018-12-21T07:56:17.821Z,-1.38
2018-12-21T07:58:46.579Z,-1.27
2018-12-21T08:01:15.788Z,-1.18
2018-12-21T08:03:44.598Z,-1.09
2018-12-21T08:06:13.481Z,-1.00
2018-12-21T08:08:42.253Z,-0.98
2018-12-21T08:11:10.934Z,-1.00
2018-12-21T08:13:39.698Z,-0.97
2018-12-21T08:16:08.428Z,-0.90
2018-12-21T08:18:37.244Z,-0.78
2018-12-21T08:21:06.190Z,-0.68
2018-12-21T08:23:35.050Z,-0.60
2018-12-21T08:26:03.885Z,-0.60
2018-12-21T08:28:32.860Z,-0.51
2018-12-21T08:31:01.648Z,-0.40
2018-12-21T08:33:30.343Z,-0.29
2018-12-21T08:35:59.377Z,-0.24
2018-12-21T08:38:28.117Z,-0.32
2018-12-21T08:40:58.340Z,-0.17
2018-12-21T08:43:27.003Z,-0.03
2018-12-21T08:45:55.797Z,-0.08
2018-12-21T08:48:24.430Z,-0.28
2018-12-21T08:50:53.162Z,-0.29
2018-12-21T08:53:21.896Z,-0.31
2018-12-21T08:55:50.610Z,-0.28
2018-12-21T08:58:19.325Z,-0.18
2018-12-21T09:00:48.066Z,-0.21
2018-12-21T09:03:16.809Z,-0.19
2018-12-21T09:08:24.821Z,0.05
2018-12-21T09:10:54.729Z,0.01
2018-12-21T09:13:23.450Z,0.04
2018-12-21T09:15:52.235Z,-0.04
2018-12-21T09:18:21.018Z,0.05
2018-12-21T09:20:50.083Z,0.10
2018-12-21T09:23:18.791Z,0.17
2018-12-21T09:25:47.562Z,0.14
2018-12-21T09:28:16.404Z,0.06
2018-12-21T09:30:45.121Z,0.18
2018-12-21T09:33:13.937Z,0.30
2018-12-21T09:35:43.170Z,0.38
2018-12-21T09:38:11.849Z,0.46
2018-12-21T09:40:40.509Z,0.51
2018-12-21T09:43:09.309Z,0.63
2018-12-21T09:45:38.024Z,0.86
2018-12-21T09:48:06.782Z,1.03
2018-12-21T09:50:35.569Z,1.23
2018-12-21T09:53:04.517Z,1.36
2018-12-21T09:55:33.307Z,1.32
2018-12-21T09:58:02.073Z,1.29
2018-12-21T10:00:30.811Z,1.22
2018-12-21T10:03:00.156Z,0.99
2018-12-21T10:05:28.986Z,1.08
2018-12-21T10:07:57.818Z,1.03
2018-12-21T10:10:26.611Z,0.95
2018-12-21T10:12:55.328Z,0.98
2018-12-21T10:15:24.058Z,0.99
2018-12-21T10:17:52.789Z,1.12
2018-12-21T10:20:21.558Z,1.30
2018-12-21T10:22:50.537Z,1.23
2018-12-21T10:25:19.312Z,1.20
2018-12-21T10:27:48.112Z,1.42
2018-12-21T10:30:16.893Z,1.51
2018-12-21T10:32:45.648Z,1.73
2018-12-21T10:35:14.421Z,1.90
2018-12-21T10:37:43.132Z,1.97
2018-12-21T10:40:11.852Z,1.70
2018-12-21T10:42:40.610Z,1.79
2018-12-21T10:45:09.384Z,1.82
2018-12-21T10:47:38.121Z,1.70
2018-12-21T10:50:10.122Z,1.64
2018-12-21T10:52:39.040Z,1.69
2018-12-21T10:55:08.377Z,1.70
2018-12-21T10:57:37.167Z,1.69
2018-12-21T11:00:11.828Z,1.83
2018-12-21T11:02:40.512Z,1.93
2018-12-21T11:05:09.309Z,2.07
2018-12-21T11:07:38.091Z,2.14
2018-12-21T11:10:10.085Z,2.19
2018-12-21T11:12:38.869Z,2.10
2018-12-21T11:15:08.350Z,2.16
2018-12-21T11:17:37.206Z,2.21
2018-12-21T11:20:07.976Z,2.34
2018-12-21T11:22:36.728Z,2.47
2018-12-21T11:25:07.921Z,2.46
2018-12-21T11:27:36.751Z,2.56
2018-12-21T11:30:13.602Z,2.83
2018-12-21T11:32:42.364Z,3.07
2018-12-21T11:35:11.150Z,3.04
2018-12-21T11:37:41.997Z,2.95
2018-12-21T11:40:10.769Z,3.12
2018-12-21T11:42:39.486Z,3.02
2018-12-21T11:45:09.704Z,2.89
2018-12-21T11:47:38.492Z,2.92
2018-12-21T11:50:10.160Z,2.81
2018-12-21T11:52:43.513Z,2.85
2018-12-21T11:55:13.177Z,2.88
2018-12-21T11:57:41.879Z,2.89
2018-12-21T12:00:11.846Z,2.94
2018-12-21T12:02:41.142Z,3.00
2018-12-21T12:05:09.891Z,2.98
2018-12-21T12:07:38.644Z,2.97
2018-12-21T12:10:08.573Z,3.08
2018-12-21T12:12:39.334Z,3.25
2018-12-21T12:15:08.827Z,3.29
2018-12-21T12:17:37.595Z,3.30
2018-12-21T12:20:06.965Z,3.27
2018-12-21T12:22:35.824Z,3.12
2018-12-21T12:25:05.575Z,2.99
2018-12-21T12:27:34.279Z,2.86
2018-12-21T12:30:11.539Z,2.66
2018-12-21T12:32:40.304Z,2.43
2018-12-21T12:35:09.220Z,2.31
2018-12-21T12:37:38.024Z,2.07
2018-12-21T12:40:09.118Z,2.10
2018-12-21T12:42:38.380Z,2.15
2018-12-21T12:45:08.720Z,2.14
2018-12-21T12:47:37.535Z,1.98
2018-12-21T12:50:07.413Z,1.82
2018-12-21T12:52:36.201Z,1.84
2018-12-21T12:55:06.377Z,1.87
2018-12-21T12:57:35.163Z,1.71
2018-12-21T13:00:12.724Z,1.69
2018-12-21T13:02:41.465Z,1.78
2018-12-21T13:05:10.322Z,1.61
2018-12-21T13:07:39.315Z,1.49
2018-12-21T13:10:10.440Z,1.40
2018-12-21T13:12:39.252Z,1.30
2018-12-21T13:15:10.764Z,1.31
2018-12-21T13:17:39.846Z,1.44
2018-12-21T13:20:10.376Z,1.37
2018-12-21T13:22:39.130Z,1.50
2018-12-21T13:25:11.645Z,1.29
2018-12-21T13:27:39.757Z,0.97
2018-12-21T13:30:12.063Z,1.03
2018-12-21T13:32:41.168Z,0.89
2018-12-21T13:35:09.958Z,0.98
2018-12-21T13:37:38.758Z,0.93
2018-12-21T13:40:10.960Z,1.02
2018-12-21T13:42:39.742Z,1.18
2018-12-21T13:45:10.440Z,1.23
2018-12-21T13:47:39.129Z,1.23
2018-12-21T13:50:12.346Z,1.17
2018-12-21T13:52:41.174Z,1.04
2018-12-21T13:55:10.129Z,0.98
2018-12-21T13:57:38.882Z,1.06
2018-12-21T14:00:11.971Z,1.13
2018-12-21T14:02:40.679Z,1.18
2018-12-21T14:05:09.541Z,1.23
2018-12-21T14:07:38.264Z,1.19
2018-12-21T14:10:10.296Z,1.17
2018-12-21T14:12:39.047Z,1.04
2018-12-21T14:15:09.302Z,0.97
2018-12-21T14:17:37.992Z,0.88
2018-12-21T14:20:10.046Z,0.81
2018-12-21T14:22:38.944Z,0.69
2018-12-21T14:25:08.640Z,0.78
2018-12-21T14:27:37.404Z,0.89
2018-12-21T14:30:13.835Z,0.82
2018-12-21T14:32:42.584Z,0.70
2018-12-21T14:35:11.595Z,0.61
2018-12-21T14:37:40.453Z,0.60
2018-12-21T14:40:09.273Z,0.59
2018-12-21T14:42:38.233Z,0.48
2018-12-21T14:45:07.790Z,0.44
2018-12-21T14:47:36.518Z,0.37
2018-12-21T14:50:19.542Z,0.41
2018-12-21T14:52:48.290Z,0.32
2018-12-21T14:55:17.004Z,0.32
2018-12-21T14:57:45.756Z,0.36
2018-12-21T15:00:15.360Z,0.31
2018-12-21T15:02:44.354Z,0.31
2018-12-21T15:05:19.460Z,0.31
2018-12-21T15:08:06.495Z,0.27
2018-12-21T15:10:52.389Z,0.28
2018-12-21T15:13:21.152Z,0.38
2018-12-21T15:15:49.959Z,0.47
2018-12-21T15:18:18.700Z,0.46
2018-12-21T15:20:47.354Z,0.48
2018-12-21T15:23:16.132Z,0.46
2018-12-21T15:25:46.154Z,0.48
2018-12-21T15:28:15.452Z,0.48
2018-12-21T15:30:44.183Z,0.48
2018-12-21T15:33:12.966Z,0.47
2018-12-21T15:35:41.843Z,0.46
2018-12-21T15:38:10.614Z,0.44
2018-12-21T15:40:39.335Z,0.38
2018-12-21T15:43:08.066Z,0.40
2018-12-21T15:45:36.761Z,0.39
2018-12-21T15:48:05.538Z,0.31
2018-12-21T15:50:34.269Z,0.25
2018-12-21T15:53:03.147Z,0.20
2018-12-21T15:55:31.918Z,0.20
2018-12-21T15:58:00.735Z,0.19
2018-12-21T16:00:29.523Z,0.12
2018-12-21T16:02:59.335Z,0.12
2018-12-21T16:05:28.129Z,0.14
2018-12-21T16:07:56.830Z,0.12
2018-12-21T16:10:25.607Z,-0.01
2018-12-21T16:12:54.379Z,-0.16
2018-12-21T16:15:23.236Z,-0.15
2018-12-21T16:17:52.058Z,-0.09
2018-12-21T16:20:20.869Z,-0.45
2018-12-21T16:22:49.653Z,-0.48
2018-12-21T16:25:18.425Z,-0.41
2018-12-21T16:27:47.156Z,-0.56
2018-12-21T16:30:16.002Z,-0.51
2018-12-21T16:32:44.772Z,-0.61
2018-12-21T16:35:13.802Z,-0.49
2018-12-21T16:37:42.658Z,-0.45
2018-12-21T16:40:12.023Z,-0.37
2018-12-21T16:42:40.774Z,-0.45
2018-12-21T16:45:11.364Z,-0.42
2018-12-21T16:47:40.154Z,-0.38
2018-12-21T16:50:12.941Z,-0.36
2018-12-21T16:52:41.697Z,-0.42
2018-12-21T16:55:10.558Z,-0.41
2018-12-21T16:57:39.499Z,-0.37
2018-12-21T17:00:13.838Z,-0.31
2018-12-21T17:02:42.602Z,-0.33
2018-12-21T17:05:11.858Z,-0.28
2018-12-21T17:07:40.530Z,-0.26
2018-12-21T17:10:18.690Z,-0.27
2018-12-21T17:12:47.259Z,-0.29
2018-12-21T17:15:16.090Z,-0.25
2018-12-21T17:17:44.812Z,-0.20
2018-12-21T17:20:13.542Z,-0.20
2018-12-21T17:22:42.289Z,-0.27
2018-12-21T17:25:13.849Z,-0.25
2018-12-21T17:27:42.683Z,-0.23
2018-12-21T17:30:12.761Z,-0.27
2018-12-21T17:32:41.634Z,-0.33
2018-12-21T17:35:11.046Z,-0.26
2018-12-21T17:37:40.327Z,-0.26
2018-12-21T17:40:10.847Z,-0.25
2018-12-21T17:42:39.607Z,-0.18
2018-12-21T17:45:10.669Z,-0.17
2018-12-21T17:47:39.450Z,-0.21
2018-12-21T17:50:10.606Z,-0.33
2018-12-21T17:52:39.484Z,-0.38
2018-12-21T17:55:09.733Z,-0.40
2018-12-21T17:57:38.856Z,-0.46
2018-12-21T18:00:17.865Z,-0.44
2018-12-21T18:02:50.260Z,-0.42
2018-12-21T18:05:19.227Z,-0.33
2018-12-21T18:07:47.971Z,-0.34
2018-12-21T18:10:16.961Z,-0.39
2018-12-21T18:12:45.891Z,-0.45
2018-12-21T18:15:14.666Z,-0.39
2018-12-21T18:17:43.492Z,-0.32
2018-12-21T18:20:13.166Z,-0.25
2018-12-21T18:22:42.758Z,-0.35
2018-12-21T18:25:17.932Z,-0.37
2018-12-21T18:27:50.096Z,-0.39
2018-12-21T18:30:23.542Z,-0.44
2018-12-21T18:32:52.742Z,-0.54
2018-12-21T18:35:22.310Z,-0.53
2018-12-21T18:37:56.008Z,-0.51
2018-12-21T18:40:24.765Z,-0.57
2018-12-21T18:42:53.665Z,-0.56
2018-12-21T18:45:23.121Z,-0.60
2018-12-21T18:47:51.884Z,-0.68
2018-12-21T18:50:20.690Z,-0.78
2018-12-21T18:52:49.393Z,-0.87
2018-12-21T18:55:18.677Z,-0.90
2018-12-21T18:57:47.660Z,-0.95
2018-12-21T19:00:17.779Z,-0.83
2018-12-21T19:02:46.686Z,-0.82
2018-12-21T19:05:16.757Z,-0.85
2018-12-21T19:07:45.641Z,-0.88
2018-12-21T19:10:14.558Z,-0.89
2018-12-21T19:12:43.406Z,-0.86
2018-12-21T19:15:12.524Z,-0.93
2018-12-21T19:17:41.916Z,-0.92
2018-12-21T19:20:12.301Z,-0.92
2018-12-21T19:22:41.379Z,-1.00
2018-12-21T19:25:11.466Z,-1.04
2018-12-21T19:27:40.242Z,-1.01
2018-12-21T19:30:12.955Z,-0.98
2018-12-21T19:32:42.763Z,-0.96
2018-12-21T19:35:13.327Z,-0.85
2018-12-21T19:37:42.188Z,-0.83
2018-12-21T19:40:12.432Z,-0.88
2018-12-21T19:42:41.590Z,-0.93
2018-12-21T19:45:12.645Z,-0.92
2018-12-21T19:47:41.600Z,-0.85
2018-12-21T19:50:11.198Z,-0.93
2018-12-21T19:52:39.977Z,-0.93
2018-12-21T19:55:33.353Z,-1.13
2018-12-21T19:58:02.165Z,-1.21
2018-12-21T20:00:30.942Z,-1.25
2018-12-21T20:02:59.749Z,-1.17
2018-12-21T20:05:28.606Z,-1.19
2018-12-21T20:07:57.320Z,-1.06
2018-12-21T20:10:26.049Z,-1.00
2018-12-21T20:12:54.778Z,-0.92
2018-12-21T20:15:23.517Z,-0.92
2018-12-21T20:17:52.227Z,-1.00
2018-12-21T20:20:21.004Z,-0.96
2018-12-21T20:22:50.160Z,-0.88
2018-12-21T20:25:19.084Z,-0.83
2018-12-21T20:27:48.073Z,-0.86
2018-12-21T20:30:19.180Z,-0.83
2018-12-21T20:32:47.847Z,-0.72
2018-12-21T20:35:16.662Z,-0.67
2018-12-21T20:37:45.447Z,-0.73
2018-12-21T20:40:15.351Z,-0.77
2018-12-21T20:45:18.539Z,-0.79
2018-12-21T20:47:47.311Z,-0.76
2018-12-21T20:50:16.964Z,-0.93
2018-12-21T20:52:45.689Z,-1.06
2018-12-21T20:55:14.546Z,-0.96
2018-12-21T20:57:45.390Z,-0.86
2018-12-21T21:00:16.841Z,-0.91
2018-12-21T21:02:45.614Z,-1.00
2018-12-21T21:05:14.456Z,-0.87
2018-12-21T21:07:43.202Z,-0.86
2018-12-21T21:10:13.238Z,-0.86
2018-12-21T21:12:42.333Z,-0.87
2018-12-21T21:15:12.663Z,-0.94
2018-12-21T21:17:41.443Z,-0.91
2018-12-21T21:20:12.742Z,-0.87
2018-12-21T21:22:41.508Z,-0.89
2018-12-21T21:25:10.806Z,-0.83
2018-12-21T21:27:39.503Z,-0.82
2018-12-21T21:30:15.517Z,-0.79
2018-12-21T21:32:44.227Z,-0.72
2018-12-21T21:35:13.131Z,-0.65
2018-12-21T21:37:42.672Z,-0.65
2018-12-21T21:40:19.357Z,-0.58
2018-12-21T21:42:57.183Z,-0.53
2018-12-21T21:45:19.779Z,-0.61
2018-12-21T21:47:48.759Z,-0.71
2018-12-21T21:50:17.449Z,-0.66
2018-12-21T21:52:46.227Z,-0.75
2018-12-21T21:55:14.975Z,-0.90
2018-12-21T21:57:43.779Z,-0.99
2018-12-21T22:00:15.117Z,-1.06
2018-12-21T22:02:43.918Z,-1.11
2018-12-21T22:05:12.777Z,-1.15
2018-12-21T22:07:41.500Z,-1.29
2018-12-21T22:10:11.292Z,-1.30
2018-12-21T22:12:39.997Z,-1.28
2018-12-21T22:15:10.544Z,-1.29
2018-12-21T22:17:39.297Z,-1.29
2018-12-21T22:20:10.817Z,-1.24
2018-12-21T22:22:39.623Z,-1.15
2018-12-21T22:25:08.419Z,-1.11
2018-12-21T22:27:37.229Z,-1.10
2018-12-21T22:30:11.699Z,-1.06
2018-12-21T22:32:40.466Z,-1.04
2018-12-21T22:35:09.365Z,-1.04
2018-12-21T22:37:38.202Z,-0.94
2018-12-21T22:40:08.387Z,-0.90
2018-12-21T22:42:37.237Z,-1.02
2018-12-21T22:45:07.178Z,-1.14
2018-12-21T22:47:36.022Z,-1.24
2018-12-21T22:50:05.657Z,-1.24
2018-12-21T22:52:34.440Z,-1.18
2018-12-21T22:55:03.261Z,-1.15
2018-12-21T22:57:32.192Z,-1.18
2018-12-21T23:00:00.877Z,-1.19
2018-12-21T23:02:30.009Z,-1.25
2018-12-21T23:04:58.792Z,-1.29
2018-12-21T23:07:27.669Z,-1.25
2018-12-21T23:09:56.366Z,-1.20
2018-12-21T23:12:25.129Z,-1.18
2018-12-21T23:14:53.846Z,-1.21
2018-12-21T23:17:22.710Z,-1.24
2018-12-21T23:19:51.519Z,-1.30
2018-12-21T23:22:20.243Z,-1.31
2018-12-21T23:24:49.036Z,-1.39
2018-12-21T23:27:17.795Z,-1.39
2018-12-21T23:29:46.497Z,-1.46
2018-12-21T23:32:15.258Z,-1.53
2018-12-21T23:34:44.029Z,-1.67
2018-12-21T23:37:12.738Z,-1.62
2018-12-21T23:39:41.509Z,-1.86
2018-12-21T23:42:10.243Z,-2.00
2018-12-21T23:44:38.966Z,-2.00
2018-12-21T23:47:07.711Z,-2.11
2018-12-21T23:49:36.763Z,-2.00
2018-12-21T23:52:05.512Z,-1.87
2018-12-21T23:54:34.231Z,-1.78
2018-12-21T23:57:03.589Z,-1.83
2018-12-21T23:59:32.762Z,-1.96
